createdAt,value
2019-06-20T00:00:03.200Z,20.65
2019-06-20T00:03:08.240Z,21.58
2019-06-20T00:06:12.617Z,22.15
2019-06-20T00:09:16.941Z,23.65
2019-06-20T00:12:21.316Z,22.77
2019-06-20T00:15:25.753Z,23.32
2019-06-20T00:18:30.007Z,25.62
2019-06-20T00:21:34.298Z,24.80
2019-06-20T00:24:38.723Z,22.90
2019-06-20T00:27:43.063Z,24.83
2019-06-20T00:30:47.371Z,24.02
2019-06-20T00:33:51.668Z,24.52
2019-06-20T00:36:56.010Z,26.83
2019-06-20T00:40:00.300Z,25.95
2019-06-20T00:43:16.921Z,24.50
2019-06-20T00:46:13.200Z,26.50
2019-06-20T00:49:17.509Z,26.37
2019-06-20T00:52:21.791Z,29.72
2019-06-20T00:55:27.028Z,28.38
2019-06-20T00:58:31.311Z,27.98
2019-06-20T01:01:35.641Z,30.52
2019-06-20T01:04:40.043Z,27.37
2019-06-20T01:07:44.295Z,28.67
2019-06-20T01:10:48.605Z,28.50
2019-06-20T01:13:53.077Z,28.47
2019-06-20T01:16:57.308Z,29.42
2019-06-20T01:20:01.619Z,30.08
2019-06-20T01:23:06.071Z,31.25
2019-06-20T01:26:10.378Z,31.45
2019-06-20T01:29:14.567Z,30.35
2019-06-20T01:32:18.839Z,31.42
2019-06-20T01:35:23.176Z,35.10
2019-06-20T01:38:27.468Z,31.90
2019-06-20T01:41:31.826Z,33.55
2019-06-20T01:44:36.092Z,32.98
2019-06-20T01:47:40.338Z,36.85
2019-06-20T01:50:44.775Z,35.43
2019-06-20T01:53:49.588Z,33.67
2019-06-20T01:56:53.849Z,34.73
2019-06-20T01:59:59.070Z,35.25
2019-06-20T02:03:03.446Z,34.90
2019-06-20T02:06:07.712Z,33.98
2019-06-20T02:09:11.948Z,33.92
2019-06-20T02:12:16.153Z,34.73
2019-06-20T02:15:23.428Z,36.60
2019-06-20T02:18:27.694Z,35.45
2019-06-20T02:21:32.066Z,38.90
2019-06-20T02:24:36.335Z,36.58
2019-06-20T02:27:40.749Z,34.50
2019-06-20T02:30:45.333Z,35.50
2019-06-20T02:33:49.700Z,35.20
2019-06-20T02:36:53.990Z,37.05
2019-06-20T02:39:58.312Z,35.73
2019-06-20T02:43:02.634Z,36.93
2019-06-20T02:46:06.947Z,38.30
2019-06-20T02:49:11.272Z,34.53
2019-06-20T02:52:15.556Z,35.00
2019-06-20T02:55:19.854Z,36.50
2019-06-20T02:58:24.158Z,35.75
2019-06-20T03:01:28.540Z,36.68
2019-06-20T03:04:32.966Z,37.70
2019-06-20T03:07:37.290Z,40.52
2019-06-20T03:10:41.630Z,39.35
2019-06-20T03:13:45.906Z,40.08
2019-06-20T03:16:50.123Z,40.90
2019-06-20T03:19:54.519Z,39.80
2019-06-20T03:22:58.825Z,42.30
2019-06-20T03:26:03.068Z,42.85
2019-06-20T03:29:07.379Z,41.30
2019-06-20T03:32:11.681Z,44.00
2019-06-20T03:35:16.097Z,43.43
2019-06-20T03:38:20.342Z,43.92
2019-06-20T03:41:24.723Z,41.83
2019-06-20T03:44:28.994Z,42.78
2019-06-20T03:47:36.307Z,43.28
2019-06-20T03:50:40.653Z,42.50
2019-06-20T03:53:44.948Z,43.10
2019-06-20T03:56:49.241Z,44.40
2019-06-20T03:59:53.718Z,44.25
2019-06-20T04:02:58.039Z,42.58
2019-06-20T04:06:02.310Z,44.60
2019-06-20T04:09:06.990Z,41.77
2019-06-20T04:12:11.313Z,41.18
2019-06-20T04:15:19.382Z,41.93
2019-06-20T04:18:21.599Z,42.60
2019-06-20T04:21:25.883Z,42.17
2019-06-20T04:24:30.205Z,42.67
2019-06-20T04:27:34.559Z,43.93
2019-06-20T04:30:38.906Z,42.78
2019-06-20T04:33:43.229Z,44.23
2019-06-20T04:36:48.219Z,43.45
2019-06-20T04:39:52.530Z,43.68
2019-06-20T04:42:56.864Z,43.40
2019-06-20T04:46:06.748Z,43.80
2019-06-20T04:49:11.126Z,42.93
2019-06-20T04:52:15.404Z,43.73
2019-06-20T04:55:19.773Z,44.83
2019-06-20T04:58:24.064Z,41.85
2019-06-20T05:01:28.334Z,41.77
2019-06-20T05:04:32.880Z,43.20
2019-06-20T05:07:37.225Z,45.10
2019-06-20T05:10:41.650Z,41.60
2019-06-20T05:13:45.976Z,42.93
2019-06-20T05:16:50.279Z,42.20
2019-06-20T05:19:54.622Z,42.95
2019-06-20T05:22:58.966Z,40.25
2019-06-20T05:26:03.263Z,40.23
2019-06-20T05:29:07.581Z,39.38
2019-06-20T05:32:11.995Z,39.10
2019-06-20T05:35:16.430Z,40.35
2019-06-20T05:38:20.761Z,41.45
2019-06-20T05:41:25.042Z,39.23
2019-06-20T05:44:29.404Z,38.35
2019-06-20T05:47:33.708Z,36.30
2019-06-20T05:50:39.745Z,38.02
2019-06-20T05:53:43.959Z,39.47
2019-06-20T05:56:48.312Z,40.12
2019-06-20T05:59:52.601Z,39.80
2019-06-20T06:02:58.145Z,40.50
2019-06-20T06:06:02.512Z,39.20
2019-06-20T06:09:07.485Z,38.60
2019-06-20T06:12:11.780Z,39.60
2019-06-20T06:15:16.400Z,42.33
2019-06-20T06:18:20.608Z,39.35
2019-06-20T06:21:24.912Z,39.15
2019-06-20T06:24:29.180Z,38.65
2019-06-20T06:27:34.366Z,37.10
2019-06-20T06:30:38.634Z,35.70
2019-06-20T06:33:42.964Z,35.92
2019-06-20T06:36:47.424Z,36.35
2019-06-20T06:39:51.754Z,36.08
2019-06-20T06:42:56.048Z,37.17
2019-06-20T06:46:00.311Z,37.00
2019-06-20T06:49:04.721Z,39.15
2019-06-20T06:52:09.039Z,38.33
2019-06-20T06:55:14.411Z,38.10
2019-06-20T06:58:18.722Z,34.63
2019-06-20T07:01:23.014Z,28.87
2019-06-20T07:04:27.325Z,26.90
2019-06-20T07:07:31.600Z,27.80
2019-06-20T07:10:35.925Z,30.17
2019-06-20T07:13:40.284Z,29.05
2019-06-20T07:16:59.443Z,31.52
2019-06-20T07:19:50.482Z,32.25
2019-06-20T07:22:55.405Z,28.60
2019-06-20T07:25:59.723Z,29.77
2019-06-20T07:29:04.088Z,26.23
2019-06-20T07:32:08.372Z,23.05
2019-06-20T07:35:12.819Z,22.90
2019-06-20T07:38:18.034Z,23.60
2019-06-20T07:41:22.317Z,24.07
2019-06-20T07:44:26.623Z,25.27
2019-06-20T07:47:31.020Z,25.08
2019-06-20T07:50:39.338Z,25.62
2019-06-20T07:53:42.190Z,24.73
2019-06-20T07:56:46.460Z,24.10
2019-06-20T07:59:50.709Z,24.00
2019-06-20T08:02:55.135Z,24.50
2019-06-20T08:05:59.441Z,24.18
2019-06-20T08:09:04.292Z,24.45
2019-06-20T08:12:08.518Z,23.02
2019-06-20T08:15:15.951Z,23.50
2019-06-20T08:18:20.603Z,23.83
2019-06-20T08:21:24.908Z,23.50
2019-06-20T08:24:29.176Z,22.77
2019-06-20T08:27:52.419Z,22.50
2019-06-20T08:30:57.730Z,23.35
2019-06-20T08:34:02.884Z,21.17
2019-06-20T08:37:07.274Z,21.42
2019-06-20T08:40:11.551Z,21.05
2019-06-20T08:43:15.831Z,20.00
2019-06-20T08:46:20.102Z,19.15
2019-06-20T08:49:25.036Z,18.45
2019-06-20T08:52:29.229Z,19.12
2019-06-20T08:55:33.598Z,19.00
2019-06-20T08:58:37.958Z,17.37
2019-06-20T09:01:42.279Z,16.67
2019-06-20T09:04:46.543Z,17.23
2019-06-20T09:07:50.850Z,17.73
2019-06-20T09:10:55.709Z,16.80
2019-06-20T09:14:01.476Z,16.80
2019-06-20T09:17:05.990Z,16.65
2019-06-20T09:20:10.675Z,17.12
2019-06-20T09:23:15.044Z,17.05
2019-06-20T09:26:19.377Z,17.55
2019-06-20T09:29:23.658Z,16.85
2019-06-20T09:32:27.972Z,17.27
2019-06-20T09:35:32.321Z,18.05
2019-06-20T09:38:36.688Z,17.05
2019-06-20T09:41:40.959Z,15.90
2019-06-20T09:44:45.380Z,15.05
2019-06-20T09:47:50.964Z,16.30
2019-06-20T09:50:56.914Z,14.63
2019-06-20T09:54:01.227Z,12.88
2019-06-20T09:57:05.548Z,13.15
2019-06-20T10:00:11.788Z,12.20
2019-06-20T10:03:16.268Z,12.20
2019-06-20T10:06:20.549Z,10.00
2019-06-20T10:09:24.914Z,9.80
2019-06-20T10:12:29.521Z,8.00
2019-06-20T10:15:35.878Z,8.03
2019-06-20T10:18:40.247Z,7.60
2019-06-20T10:21:46.203Z,7.83
2019-06-20T10:24:51.315Z,8.40
2019-06-20T10:27:55.662Z,6.33
2019-06-20T10:31:00.790Z,5.85
2019-06-20T10:34:05.219Z,6.25
2019-06-20T10:37:09.616Z,6.65
2019-06-20T10:40:14.434Z,6.47
2019-06-20T10:43:18.724Z,5.97
2019-06-20T10:46:23.231Z,6.77
2019-06-20T10:49:27.545Z,6.50
2019-06-20T10:52:31.947Z,6.83
2019-06-20T10:55:36.158Z,7.65
2019-06-20T10:58:41.588Z,7.30
2019-06-20T11:01:46.727Z,6.80
2019-06-20T11:04:51.299Z,6.00
2019-06-20T11:07:55.626Z,6.65
2019-06-20T11:10:59.920Z,5.60
2019-06-20T11:14:04.500Z,5.72
2019-06-20T11:17:08.791Z,5.33
2019-06-20T11:20:14.062Z,6.10
2019-06-20T11:23:18.288Z,5.30
2019-06-20T11:26:22.551Z,5.17
2019-06-20T11:29:27.116Z,6.17
2019-06-20T11:32:31.970Z,5.50
2019-06-20T11:35:37.731Z,5.60
2019-06-20T11:38:42.533Z,4.97
2019-06-20T11:41:48.426Z,4.45
2019-06-20T11:44:52.841Z,4.25
2019-06-20T11:47:58.003Z,4.10
2019-06-20T11:51:02.315Z,3.80
2019-06-20T11:54:06.669Z,4.50
2019-06-20T11:57:10.916Z,4.37
2019-06-20T12:00:15.914Z,4.90
2019-06-20T12:03:20.146Z,5.70
2019-06-20T12:06:24.618Z,5.75
2019-06-20T12:09:28.986Z,5.55
2019-06-20T12:12:33.363Z,5.30
2019-06-20T12:15:38.085Z,5.95
2019-06-20T12:18:45.175Z,6.20
2019-06-20T12:21:49.535Z,6.15
2019-06-20T12:24:53.922Z,5.47
2019-06-20T12:27:58.254Z,5.78
2019-06-20T12:31:18.239Z,6.22
2019-06-20T12:34:08.668Z,5.90
2019-06-20T12:37:12.984Z,6.17
2019-06-20T12:40:17.729Z,6.03
2019-06-20T12:43:21.992Z,3.70
2019-06-20T12:46:26.352Z,3.27
2019-06-20T12:49:30.612Z,3.60
2019-06-20T12:52:34.978Z,3.58
2019-06-20T12:55:40.360Z,3.45
2019-06-20T12:58:44.774Z,3.20
2019-06-20T13:01:49.899Z,3.10
2019-06-20T13:04:55.348Z,3.17
2019-06-20T13:07:59.780Z,2.90
2019-06-20T13:11:04.405Z,2.85
2019-06-20T13:14:08.805Z,2.80
2019-06-20T13:17:13.005Z,2.98
2019-06-20T13:20:18.384Z,2.90
2019-06-20T13:23:22.662Z,2.80
2019-06-20T13:26:27.054Z,3.00
2019-06-20T13:29:31.330Z,2.55
2019-06-20T13:32:35.651Z,3.30
2019-06-20T13:35:41.625Z,2.90
2019-06-20T13:38:46.682Z,2.65
2019-06-20T13:41:51.129Z,2.87
2019-06-20T13:44:55.410Z,2.70
2019-06-20T13:47:59.655Z,3.05
2019-06-20T13:51:03.962Z,2.85
2019-06-20T13:54:08.285Z,2.65
2019-06-20T13:57:12.617Z,2.70
2019-06-20T14:00:18.279Z,3.07
2019-06-20T14:03:22.912Z,2.77
2019-06-20T14:06:27.192Z,2.47
2019-06-20T14:09:31.613Z,2.45
2019-06-20T14:12:35.965Z,2.62
2019-06-20T14:15:42.661Z,2.90
2019-06-20T14:18:46.531Z,3.12
2019-06-20T14:21:50.856Z,2.97
2019-06-20T14:24:55.483Z,3.40
2019-06-20T14:27:59.872Z,2.60
2019-06-20T14:31:04.200Z,2.70
2019-06-20T14:34:08.418Z,2.10
2019-06-20T14:37:12.736Z,2.50
2019-06-20T14:40:17.187Z,2.37
2019-06-20T14:43:21.467Z,2.70
2019-06-20T14:46:25.838Z,2.55
2019-06-20T14:49:30.145Z,2.75
2019-06-20T14:52:34.470Z,2.60
2019-06-20T14:55:38.779Z,2.30
2019-06-20T14:58:44.724Z,2.30
2019-06-20T15:01:50.589Z,2.47
2019-06-20T15:04:55.070Z,2.60
2019-06-20T15:07:59.411Z,3.15
2019-06-20T15:11:03.959Z,2.90
2019-06-20T15:14:08.376Z,3.47
2019-06-20T15:17:12.734Z,3.58
2019-06-20T15:20:19.058Z,3.72
2019-06-20T15:23:23.441Z,3.10
2019-06-20T15:26:27.726Z,3.17
2019-06-20T15:29:31.980Z,3.27
2019-06-20T15:32:36.374Z,2.47
2019-06-20T15:35:40.883Z,2.37
2019-06-20T15:38:47.652Z,4.75
2019-06-20T15:41:54.040Z,4.70
2019-06-20T15:44:58.484Z,5.40
2019-06-20T15:48:02.887Z,4.97
2019-06-20T15:51:07.176Z,4.50
2019-06-20T15:54:11.598Z,4.50
2019-06-20T15:57:15.978Z,4.50
2019-06-20T16:00:21.603Z,4.78
2019-06-20T16:03:25.876Z,5.28
2019-06-20T16:06:30.294Z,5.05
2019-06-20T16:09:34.643Z,4.87
2019-06-20T16:12:39.076Z,5.37
2019-06-20T16:15:43.351Z,5.50
2019-06-20T16:18:48.326Z,5.60
2019-06-20T16:21:52.744Z,5.42
2019-06-20T16:24:57.090Z,5.00
2019-06-20T16:28:01.636Z,5.40
2019-06-20T16:31:10.316Z,5.12
2019-06-20T16:34:12.135Z,4.72
2019-06-20T16:37:16.578Z,5.12
2019-06-20T16:40:30.046Z,3.98
2019-06-20T16:43:34.547Z,3.75
2019-06-20T16:46:38.899Z,4.12
2019-06-20T16:49:43.434Z,3.60
2019-06-20T16:52:47.842Z,3.60
2019-06-20T16:55:52.167Z,3.27
2019-06-20T16:58:56.472Z,3.27
2019-06-20T17:02:00.855Z,3.15
2019-06-20T17:05:06.453Z,2.80
2019-06-20T17:08:10.798Z,2.67
2019-06-20T17:11:15.355Z,2.50
2019-06-20T17:14:19.767Z,3.35
2019-06-20T17:17:24.126Z,2.50
2019-06-20T17:20:28.527Z,2.83
2019-06-20T17:23:32.968Z,2.67
2019-06-20T17:26:37.358Z,3.27
2019-06-20T17:29:41.739Z,2.70
2019-06-20T17:32:45.952Z,2.33
2019-06-20T17:35:50.365Z,2.10
2019-06-20T17:39:13.782Z,2.20
2019-06-20T17:42:18.332Z,2.35
2019-06-20T17:45:22.945Z,2.33
2019-06-20T17:48:27.294Z,2.10
2019-06-20T17:51:31.643Z,2.00
2019-06-20T17:54:35.933Z,1.90
2019-06-20T17:57:40.352Z,1.72
2019-06-20T18:00:44.613Z,1.82
2019-06-20T18:03:49.063Z,2.15
2019-06-20T18:06:53.416Z,1.70
2019-06-20T18:09:57.892Z,1.75
2019-06-20T18:13:02.229Z,2.00
2019-06-20T18:16:06.610Z,1.87
2019-06-20T18:19:11.049Z,1.98
2019-06-20T18:22:15.816Z,1.70
2019-06-20T18:25:20.242Z,1.67
2019-06-20T18:28:25.244Z,1.75
2019-06-20T18:31:29.631Z,1.67
2019-06-20T18:34:34.006Z,1.70
2019-06-20T18:37:38.403Z,1.55
2019-06-20T18:40:42.703Z,1.77
2019-06-20T18:43:47.076Z,1.57
2019-06-20T18:46:51.539Z,1.72
2019-06-20T18:49:55.834Z,1.77
2019-06-20T18:53:00.190Z,1.60
2019-06-20T18:56:04.603Z,1.60
2019-06-20T18:59:08.892Z,1.92
2019-06-20T19:02:13.361Z,2.00
2019-06-20T19:05:17.841Z,1.87
2019-06-20T19:08:22.183Z,1.60
2019-06-20T19:11:26.681Z,1.80
2019-06-20T19:14:31.269Z,1.60
2019-06-20T19:17:35.633Z,1.50
2019-06-20T19:20:40.024Z,1.55
2019-06-20T19:23:44.435Z,1.92
2019-06-20T19:26:48.852Z,1.47
2019-06-20T19:29:53.256Z,1.70
2019-06-20T19:32:58.505Z,1.62
2019-06-20T19:36:02.935Z,1.52
2019-06-20T19:39:07.943Z,1.90
2019-06-20T19:42:14.949Z,2.10
2019-06-20T19:45:21.066Z,1.93
2019-06-20T19:48:26.183Z,2.75
2019-06-20T19:51:30.638Z,3.15
2019-06-20T19:54:35.079Z,2.52
2019-06-20T19:57:39.980Z,2.02
2019-06-20T20:00:46.788Z,2.10
2019-06-20T20:03:53.313Z,1.98
2019-06-20T20:06:57.741Z,2.00
2019-06-20T20:10:02.140Z,1.67
2019-06-20T20:13:07.975Z,1.85
2019-06-20T20:16:12.600Z,1.63
2019-06-20T20:19:16.892Z,1.57
2019-06-20T20:22:21.165Z,2.02
2019-06-20T20:25:25.475Z,1.65
2019-06-20T20:28:29.810Z,2.00
2019-06-20T20:31:34.141Z,1.80
2019-06-20T20:34:38.445Z,2.15
2019-06-20T20:37:43.087Z,1.90
2019-06-20T20:40:47.296Z,1.80
2019-06-20T20:43:51.529Z,1.80
2019-06-20T20:46:55.781Z,1.60
2019-06-20T20:50:00.132Z,1.60
2019-06-20T20:53:04.405Z,2.20
2019-06-20T20:56:08.789Z,1.70
2019-06-20T20:59:13.084Z,1.50
2019-06-20T21:02:17.448Z,1.50
2019-06-20T21:05:21.742Z,1.70
2019-06-20T21:08:28.764Z,1.90
2019-06-20T21:11:32.994Z,2.10
2019-06-20T21:14:37.355Z,1.85
2019-06-20T21:17:41.646Z,1.80
2019-06-20T21:20:45.974Z,1.72
2019-06-20T21:23:50.260Z,2.35
2019-06-20T21:26:54.503Z,1.90
2019-06-20T21:29:58.853Z,2.00
2019-06-20T21:33:03.173Z,1.98
2019-06-20T21:36:09.082Z,1.62
2019-06-20T21:39:13.413Z,1.80
2019-06-20T21:42:17.607Z,1.92
2019-06-20T21:45:22.309Z,2.17
2019-06-20T21:48:26.502Z,2.02
2019-06-20T21:51:30.895Z,1.98
2019-06-20T21:54:36.024Z,1.80
2019-06-20T21:57:40.617Z,1.55
2019-06-20T22:00:47.314Z,1.75
2019-06-20T22:03:51.663Z,1.60
2019-06-20T22:06:55.855Z,1.70
2019-06-20T22:10:00.115Z,1.83
2019-06-20T22:13:04.561Z,1.90
2019-06-20T22:16:08.807Z,1.82
2019-06-20T22:19:13.064Z,2.17
2019-06-20T22:22:17.311Z,1.92
2019-06-20T22:25:23.650Z,2.05
2019-06-20T22:28:27.920Z,1.80
2019-06-20T22:31:32.208Z,1.55
2019-06-20T22:34:36.415Z,1.77
2019-06-20T22:37:40.616Z,2.08
2019-06-20T22:40:44.967Z,2.22
2019-06-20T22:43:49.237Z,2.22
2019-06-20T22:46:53.688Z,2.05
2019-06-20T22:49:57.952Z,1.98
2019-06-20T22:53:02.307Z,2.00
2019-06-20T22:56:06.501Z,2.00
2019-06-20T22:59:10.804Z,2.25
2019-06-20T23:02:15.129Z,2.33
2019-06-20T23:05:19.597Z,2.00
2019-06-20T23:08:23.918Z,2.60
2019-06-20T23:11:28.288Z,2.33
2019-06-20T23:14:32.667Z,2.15
2019-06-20T23:17:36.977Z,2.12
2019-06-20T23:20:41.186Z,1.70
2019-06-20T23:23:45.550Z,2.00
2019-06-20T23:26:49.994Z,2.00
2019-06-20T23:29:54.379Z,2.10
2019-06-20T23:32:58.630Z,2.08
2019-06-20T23:36:02.888Z,2.10
2019-06-20T23:39:07.496Z,2.15
2019-06-20T23:42:11.871Z,2.30
2019-06-20T23:45:16.272Z,2.05
2019-06-20T23:48:20.572Z,2.00
2019-06-20T23:51:26.444Z,1.90
2019-06-20T23:54:30.955Z,1.85
2019-06-20T23:57:35.257Z,1.90
